Tiempo atmosférico en la estación meteorológica de Torreblanca, Castelló/Castellón (16 m.)



Fecha
DESCASC
Temp. máxima en grados centígrados (hora)
DESCASC
Temp. mínima en grados centígrados (hora)
DESCASC
Temp. media en grados centígrados
DESCASC
Racha de viento máxima en m/sg (hora)
DESCASC
Velocidad máxima media en intervalos de 10 minutos(hora)
DESCASC
Precipitaciones diarias en mm
DESCASC
Precipitaciones de 00:00 a 06:00 en mm
DESCASC
Precipitaciones de 06:00 a 12:00 en mm
DESCASC
Precipitaciones de 12:00 a 18:00 en mm
DESCASC
Precipitaciones de 18:00 a 24:00 en mm
DESCASC
26-11-2020 16.8 (23:20) 12.1 (03:00) 14.4 7.22 (19:40) 5.28 (04:20) 3 0 1.4 1.4 0.2
25-11-2020 17.6 (12:50) 9.1 (08:00) 13.4 7.5 (02:00) 5.28 (02:00) 0 0 0 0 0
24-11-2020 17 (12:10) 8.9 (06:50) 12.9 6.94 (23:59) 4.72 (23:59) 0 0 0 0 0
23-11-2020 17.8 (12:20) 9 (07:30) 13.4 6.67 (14:20) 4.44 (04:10) 0 0 0 0 0
22-11-2020 17.1 (14:20) 7.7 (00:00) 12.4 7.5 (03:40) 5.28 (03:40) 0 0 0 0 0
21-11-2020 17.3 (12:30) 8.3 (00:00) 12.8 6.39 (06:00) 4.72 (06:00) 0 0 0 0 0
20-11-2020 20 (14:10) 9.6 (00:00) 14.8 13.61 (10:00) 7.5 (09:50) 0 0 0 0 0
19-11-2020 21.4 (15:10) 13.5 (00:00) 17.4 9.17 (22:10) 5.56 (22:30) 0 0 0 0 0
18-11-2020 20.9 (12:40) 13.2 (00:00) 17 5.28 (04:20) 3.61 (04:20) 0 0 0 0 0
17-11-2020 20.2 (12:50) 12.9 (00:00) 16.6 5.83 (07:50) 3.61 (07:40) 0 0 0 0 0
16-11-2020 23.7 (13:50) 16.1 (00:00) 19.9 11.67 (10:40) 8.06 (10:40) 0 0 0 0 0
15-11-2020 21.4 (16:10) 13.3 (00:00) 17.3 5.83 (05:20) 4.17 (05:10) 0 0 0 0 0
14-11-2020 19.2 (13:00) 13.6 (00:00) 16.4 5.28 (08:20) 3.89 (08:20) 0.4 0 0 0.4 0
13-11-2020 20.3 (13:50) 12.7 (00:00) 16.5 6.94 (08:10) 4.72 (01:30) 0 0 0 0 0
12-11-2020 19.9 (13:40) 12.2 (00:00) 16 6.11 (06:00) 4.17 (07:00) 0 0 0 0 0
11-11-2020 19.4 (11:50) 11.8 (00:00) 15.6 6.67 (02:20) 4.72 (02:20) 0 0 0 0 0
10-11-2020 -- (--) -- (--) -- 6.94 (04:20) 5.28 (04:00) 0 0 0 0 0
09-11-2020 19.5 (16:10) 11.6 (00:00) 15.6 6.39 (05:40) 4.72 (05:30) 0 0 0 0 0
08-11-2020 20 (11:20) 12.6 (00:00) 16.3 7.78 (01:30) 5.56 (08:10) 0 0 0 0 0
07-11-2020 20.1 (16:10) 14.6 (00:00) 17.4 16.67 (07:50) 8.33 (07:50) 8.4 0.4 8 0 0
06-11-2020 19.5 (14:10) 16.9 (00:00) 18.2 11.39 (11:10) 7.22 (11:20) 0 0 0 0 0
05-11-2020 17.6 (22:50) 12.6 (00:00) 15.1 14.44 (20:30) 9.17 (20:20) 13.2 0 0.2 0.2 12.8
04-11-2020 17 (00:00) 10.5 (00:00) 13.8 12.22 (05:20) 8.61 (05:20) 22 6.2 10.8 0.2 4.8
03-11-2020 21.4 (11:50) 15.2 (00:00) 18.3 9.44 (22:50) 5.83 (17:30) 0 0 0 0 0
02-11-2020 21.5 (12:20) 13.7 (00:00) 17.6 6.67 (06:20) 4.72 (08:20) 0 0 0 0 0
01-11-2020 22.2 (13:20) 13.7 (00:00) 18 5.83 (05:50) 4.17 (05:50) 0 0 0 0 0
31-10-2020 21.4 (14:00) 13.3 (00:00) 17.3 6.11 (07:20) 3.89 (06:00) 0 0 0 0 0
30-10-2020 21.5 (13:50) 12.9 (00:00) 17.2 6.11 (06:40) 4.72 (06:40) 0 0 0 0 0
29-10-2020 21.8 (15:10) 14.1 (00:00) 17.9 7.5 (02:20) 5.28 (02:30) 0 0 0 0 0
28-10-2020 21.4 (11:00) 13.5 (00:00) 17.4 7.5 (03:00) 5.83 (02:40) 0 0 0 0 0

Gráficas

Temp. máximas Temp. mínimas Temp. medias Precipitaciones Rachas de viento máximas Velocidades máximas media en intervalos de 10 minutos

Datos horarios

Fecha y hora oficial Temperatura (ºC) Velocidad del viento (km/h) Dirección del viento Racha (km/h) Dirección de racha Precipitación (mm) Presión (hPa) Tendencia (hPa) Humedad (%)
2020-11-26 23:00:00 16.5 8 Nordeste 17 Norte 0.2 -- -- 91
2020-11-26 22:00:00 16.4 9 Norte 18 Norte 0 -- -- 89
2020-11-26 21:00:00 16.3 14 Norte 23 Norte 0 -- -- 88
2020-11-26 20:00:00 16.3 12 Norte 26 Norte 0 -- -- 85
2020-11-26 19:00:00 16.3 13 Norte 20 Norte 0 -- -- 87
2020-11-26 18:00:00 16.6 13 Norte 24 Norte 0 -- -- 85
2020-11-26 17:00:00 16.4 14 Norte 23 Norte 0.2 -- -- 84
2020-11-26 16:00:00 16.6 10 Norte 18 Norte 0 -- -- 82
2020-11-26 15:00:00 16.3 8 Norte 17 Norte 0.4 -- -- 86
2020-11-26 14:00:00 15.8 12 Norte 19 Norte 0.8 -- -- 90
2020-11-26 13:00:00 16.7 13 Norte 22 Norte 0 -- -- 84
2020-11-26 12:00:00 15.2 14 Norte 23 Norte 0.6 -- -- 89
2020-11-26 11:00:00 14.1 13 Noroeste 23 Norte 0.8 -- -- 90
2020-11-26 10:00:00 14.3 15 Norte 24 Norte 0 -- -- 84
2020-11-26 09:00:00 13.5 15 Norte 23 Noroeste 0 -- -- 86
2020-11-26 08:00:00 12.6 17 Norte 25 Noroeste 0 -- -- 88
2020-11-26 07:00:00 12.9 17 Norte 23 Noroeste 0 -- -- 87
2020-11-26 06:00:00 12.6 16 Noroeste 24 Norte 0 -- -- 89
2020-11-26 05:00:00 12.7 15 Norte 25 Noroeste 0 -- -- 88
2020-11-26 04:00:00 12.9 17 Norte 24 Noroeste 0 -- -- 86
2020-11-26 03:00:00 12.1 18 Noroeste 24 Noroeste 0 -- -- 87
2020-11-26 02:00:00 12.4 17 Noroeste 23 Noroeste 0 -- -- 87
2020-11-26 01:00:00 12.5 16 Noroeste 23 Noroeste 0 -- -- 87
2020-11-26 00:00:00 13.1 12 Norte 21 Norte 0 -- -- 86
2020-11-25 23:00:00 12.8 15 Norte 26 Norte 0 -- -- 84
2020-11-25 22:00:00 12.6 17 Noroeste 25 Noroeste 0 -- -- 82
2020-11-25 21:00:00 12.4 17 Norte 23 Norte 0 -- -- 84
2020-11-25 20:00:00 12.1 16 Norte 22 Norte 0 -- -- 86
2020-11-25 19:00:00 12.9 8 Norte 12 Norte 0 -- -- 86
2020-11-25 18:00:00 13.4 3 Noroeste 5 Noroeste 0 -- -- 81
2020-11-25 17:00:00 16.1 2 Sudeste 12 Sudeste 0 -- -- 73
2020-11-25 16:00:00 16.7 7 Sudeste 17 Sudeste 0 -- -- 70
2020-11-25 15:00:00 17 9 Sudeste 16 Sudeste 0 -- -- 63
2020-11-25 14:00:00 17.2 7 Sudeste 14 Sur 0 -- -- 62
2020-11-25 13:00:00 17.4 8 Sur 13 Sur 0 -- -- 62
2020-11-25 12:00:00 17 7 Sur 13 Sur 0 -- -- 65
2020-11-25 11:00:00 14.9 6 Norte 14 Noroeste 0 -- -- 72
2020-11-25 10:00:00 12.9 9 Noroeste 21 Noroeste 0 -- -- 74
2020-11-25 09:00:00 10.5 14 Noroeste 23 Noroeste 0 -- -- 79
2020-11-25 08:00:00 9.1 14 Noroeste 22 Noroeste 0 -- -- 83
2020-11-25 07:00:00 9.8 15 Noroeste 22 Noroeste 0 -- -- 81
2020-11-25 06:00:00 9.6 15 Noroeste 27 Norte 0 -- -- 82
2020-11-25 05:00:00 10 17 Noroeste 26 Noroeste 0 -- -- 81
2020-11-25 04:00:00 9.8 18 Noroeste 26 Noroeste 0 -- -- 82
2020-11-25 03:00:00 10 17 Noroeste 27 Noroeste 0 -- -- 82
2020-11-25 02:00:00 9.9 19 Noroeste 27 Noroeste 0 -- -- 83
2020-11-25 01:00:00 10 18 Noroeste 26 Norte 0 -- -- 84
2020-11-25 00:00:00 10.3 17 Noroeste 25 Noroeste 0 -- -- 84
2020-11-24 23:00:00 10.2 14 Noroeste 22 Noroeste 0 -- -- 86
2020-11-24 22:00:00 10.9 12 Noroeste 19 Noroeste 0 -- -- 86
2020-11-24 21:00:00 11.3 12 Noroeste 17 Norte 0 -- -- 85
2020-11-24 20:00:00 11.7 9 Noroeste 14 Noroeste 0 -- -- 85
2020-11-24 19:00:00 12.1 6 Noroeste 8 Noroeste 0 -- -- 84
2020-11-24 18:00:00 12.8 5 Noroeste 6 Noroeste 0 -- -- 80
2020-11-24 17:00:00 15.1 3 Sur 13 Sudeste 0 -- -- 72
2020-11-24 16:00:00 16 7 Sur 17 Sudeste 0 -- -- 69
2020-11-24 15:00:00 16.6 11 Sur 18 Sudeste 0 -- -- 68
2020-11-24 14:00:00 16.9 10 Sur 21 Sur 0 -- -- 66
2020-11-24 13:00:00 16.9 9 Sur 17 Sudeste 0 -- -- 70
2020-11-24 12:00:00 16.9 7 Sur 13 Sudeste 0 -- -- 69
2020-11-24 11:00:00 15.3 5 Sur 9 Sur 0 -- -- 75
2020-11-24 10:00:00 14 4 Norte 15 Noroeste 0 -- -- 78
2020-11-24 09:00:00 11.4 12 Noroeste 18 Noroeste 0 -- -- 83
2020-11-24 08:00:00 9.8 13 Noroeste 19 Noroeste 0 -- -- 87
2020-11-24 07:00:00 9 12 Noroeste 17 Noroeste 0 -- -- 88
2020-11-24 06:00:00 9.9 8 Noroeste 14 Noroeste 0 -- -- 87
2020-11-24 05:00:00 9.5 5 Noroeste 11 Noroeste 0 -- -- 88
2020-11-24 04:00:00 10.4 6 Noroeste 14 Oeste 0 -- -- 86
2020-11-24 03:00:00 10.4 3 Oeste 17 Noroeste 0 -- -- 86
2020-11-24 02:00:00 10.4 7 Noroeste 20 Noroeste 0 -- -- 88
2020-11-24 01:00:00 10.6 14 Noroeste 21 Noroeste 0 -- -- 87
2020-11-24 00:00:00 10.8 9 Noroeste 17 Noroeste 0 -- -- 87
2020-11-23 23:00:00 11.1 12 Noroeste 15 Noroeste 0 -- -- 85
2020-11-23 22:00:00 11.3 9 Noroeste 15 Noroeste 0 -- -- 84
2020-11-23 21:00:00 11.4 10 Noroeste 14 Noroeste 0 -- -- 83
2020-11-23 20:00:00 11.9 8 Noroeste 11 Noroeste 0 -- -- 81
2020-11-23 19:00:00 12.2 7 Oeste 9 Oeste 0 -- -- 79
2020-11-23 18:00:00 13.3 7 Noroeste 10 Sur 0 -- -- 75
2020-11-23 17:00:00 16 8 Sur 21 Sur 0 -- -- 66
2020-11-23 16:00:00 16.7 13 Sur 22 Sur 0 -- -- 62
2020-11-23 15:00:00 17 16 Sur 24 Sur 0 -- -- 62
2020-11-23 14:00:00 17.6 16 Sur 23 Sur 0 -- -- 58
2020-11-23 13:00:00 17.6 15 Sur 22 Sur 0 -- -- 59
2020-11-23 12:00:00 17.6 9 Sur 20 Sur 0 -- -- 58
2020-11-23 11:00:00 16.4 5 Sur 10 Sudoeste 0 -- -- 65
2020-11-23 10:00:00 13.2 8 Noroeste 20 Norte 0 -- -- 73
2020-11-23 09:00:00 10.5 14 Noroeste 21 Noroeste 0 -- -- 80
2020-11-23 08:00:00 9 13 Noroeste 23 Noroeste 0 -- -- 84
2020-11-23 07:00:00 9.1 12 Noroeste 21 Noroeste 0 -- -- 85
2020-11-23 06:00:00 9.5 14 Noroeste 21 Noroeste 0 -- -- 84
2020-11-23 05:00:00 10.1 12 Noroeste 23 Noroeste 0 -- -- 82
2020-11-23 04:00:00 10 15 Noroeste 22 Noroeste 0 -- -- 82
2020-11-23 03:00:00 9.4 14 Noroeste 21 Noroeste 0 -- -- 86
2020-11-23 02:00:00 9.5 13 Noroeste 22 Noroeste 0 -- -- 86
2020-11-23 01:00:00 9.9 14 Noroeste 19 Noroeste 0 -- -- 85
2020-11-23 00:00:00 9.9 13 Noroeste 18 Noroeste 0 -- -- 86
2020-11-22 23:00:00 10.2 12 Noroeste 20 Noroeste 0 -- -- 86
2020-11-22 22:00:00 10.5 14 Noroeste 20 Noroeste 0 -- -- 84
2020-11-22 21:00:00 10.9 7 Noroeste 10 Noroeste 0 -- -- 85
2020-11-22 20:00:00 11.3 6 Noroeste 8 Noroeste 0 -- -- 82
2020-11-22 19:00:00 11.1 6 Noroeste 7 Noroeste 0 -- -- 82
2020-11-22 18:00:00 12.4 5 Noroeste 7 Noroeste 0 -- -- 76
2020-11-22 17:00:00 15.9 5 Sur 15 Sudeste 0 -- -- 64
2020-11-22 16:00:00 16.5 8 Sur 15 Sur 0 -- -- 63
2020-11-22 15:00:00 16.9 8 Sur 16 Sur 0 -- -- 59
2020-11-22 14:00:00 17 9 Sur 20 Sur 0 -- -- 58
2020-11-22 13:00:00 16.7 10 Sur 19 Sur 0 -- -- 60
2020-11-22 12:00:00 16.8 9 Sur 15 Sudeste 0 -- -- 59
2020-11-22 11:00:00 15.9 5 Sur 9 Sudeste 0 -- -- 62
2020-11-22 10:00:00 13 3 Oeste 17 Noroeste 0 -- -- 72
2020-11-22 09:00:00 9.1 10 Noroeste 18 Noroeste 0 -- -- 77
2020-11-22 08:00:00 7.7 7 Noroeste 22 Noroeste 0 -- -- 80
2020-11-22 07:00:00 8.8 17 Noroeste 23 Noroeste 0 -- -- 79
2020-11-22 06:00:00 8.5 16 Noroeste 26 Norte 0 -- -- 75
2020-11-22 05:00:00 8.9 17 Noroeste 26 Noroeste 0 -- -- 75
2020-11-22 04:00:00 8.3 18 Noroeste 27 Norte 0 -- -- 80
2020-11-22 03:00:00 8.5 15 Noroeste 22 Norte 0 -- -- 81
2020-11-22 02:00:00 9.7 4 Oeste 21 Noroeste 0 -- -- 77
2020-11-22 01:00:00 10.3 14 Noroeste 23 Oeste 0 -- -- 74
2020-11-22 00:00:00 9.7 10 Noroeste 18 Noroeste 0 -- -- 75
2020-11-21 23:00:00 9.7 15 Noroeste 21 Noroeste 0 -- -- 71
2020-11-21 22:00:00 10.4 14 Noroeste 23 Noroeste 0 -- -- 67
2020-11-21 21:00:00 10.4 14 Noroeste 21 Noroeste 0 -- -- 67
2020-11-21 20:00:00 11.2 12 Noroeste 18 Noroeste 0 -- -- 64
2020-11-21 19:00:00 12.1 13 Noroeste 17 Noroeste 0 -- -- 62
2020-11-21 18:00:00 12.6 4 Norte 10 Este 0 -- -- 63
2020-11-21 17:00:00 15.1 8 Este 14 Este 0 -- -- 51
2020-11-21 16:00:00 16.1 8 Este 17 Sudeste 0 -- -- 48
2020-11-21 15:00:00 16.8 10 Este 21 Este 0 -- -- 45
2020-11-21 14:00:00 17.2 10 Sudeste 18 Este 0 -- -- 45
2020-11-21 13:00:00 17 10 Este 17 Este 0 -- -- 43
2020-11-21 12:00:00 16.7 5 Este 11 Sudeste 0 -- -- 43
2020-11-21 11:00:00 15.7 6 Este 11 Noroeste 0 -- -- 43
2020-11-21 10:00:00 13.1 9 Noroeste 18 Norte 0 -- -- 42
2020-11-21 09:00:00 10.6 12 Norte 23 Noroeste 0 -- -- 41
2020-11-21 08:00:00 8.6 13 Noroeste 22 Noroeste 0 -- -- 47
2020-11-21 07:00:00 8.8 13 Noroeste 22 Noroeste 0 -- -- 47
2020-11-21 06:00:00 8.4 17 Noroeste 23 Noroeste 0 -- -- 49
2020-11-21 05:00:00 9.2 10 Noroeste 17 Noroeste 0 -- -- 47
2020-11-21 04:00:00 9.7 8 Noroeste 16 Noroeste 0 -- -- 42
2020-11-21 03:00:00 9.2 4 Oeste 12 Noroeste 0 -- -- 46
2020-11-21 02:00:00 8.8 3 Oeste 12 Noroeste 0 -- -- 50
2020-11-21 01:00:00 9.1 8 Noroeste 12 Noroeste 0 -- -- 49
2020-11-21 00:00:00 9.6 5 Noroeste 9 Noroeste 0 -- -- 50
2020-11-20 23:00:00 10.4 7 Noroeste 12 Norte 0 -- -- 49
2020-11-20 22:00:00 11.7 9 Noroeste 13 Norte 0 -- -- 46
2020-11-20 21:00:00 12.3 7 Norte 14 Norte 0 -- -- 46
2020-11-20 20:00:00 13.2 12 Norte 19 Noroeste 0 -- -- 47
2020-11-20 19:00:00 13.7 13 Noroeste 22 Noroeste 0 -- -- 45
2020-11-20 18:00:00 15 3 Norte 20 Norte 0 -- -- 45
2020-11-20 17:00:00 18.4 14 Norte 26 Norte 0 -- -- 34
2020-11-20 16:00:00 19.4 15 Norte 27 Norte 0 -- -- 33
2020-11-20 15:00:00 19.6 17 Norte 26 Norte 0 -- -- 36
2020-11-20 14:00:00 19.8 16 Norte 27 Nordeste 0 -- -- 34
2020-11-20 13:00:00 19.2 18 Norte 39 Norte 0 -- -- 34
2020-11-20 12:00:00 17.5 23 Norte 40 Norte 0 -- -- 39
2020-11-20 11:00:00 16.6 22 Norte 42 Norte 0 -- -- 39
2020-11-20 10:00:00 15.2 27 Norte 49 Norte 0 -- -- 41
2020-11-20 09:00:00 14.5 27 Norte 41 Nordeste 0 -- -- 40
2020-11-20 08:00:00 13.2 17 Norte 37 Norte 0 -- -- 45
2020-11-20 07:00:00 13.6 14 Norte 30 Norte 0 -- -- 43
2020-11-20 06:00:00 13.9 12 Norte 28 Norte 0 -- -- 44
2020-11-20 05:00:00 13 6 Norte 29 Noroeste 0 -- -- 52
2020-11-20 04:00:00 13.8 10 Norte 21 Noroeste 0 -- -- 50
2020-11-20 03:00:00 15 16 Norte 31 Norte 0 -- -- 48
2020-11-20 02:00:00 15.9 16 Norte 37 Norte 0 -- -- 44
2020-11-20 01:00:00 16.3 18 Norte 31 Noroeste 0 -- -- 43
2020-11-20 00:00:00 16.8 13 Norte 31 Noroeste 0 -- -- 49
2020-11-19 23:00:00 17.6 14 Noroeste 33 Noroeste 0 -- -- 48
2020-11-19 22:00:00 16.4 9 Norte 16 Norte 0 -- -- 61
2020-11-19 21:00:00 18.2 11 Norte 24 Norte 0 -- -- 57
2020-11-19 20:00:00 19.4 8 Norte 21 Norte 0 -- -- 56
2020-11-19 19:00:00 18.8 10 Norte 19 Noroeste 0 -- -- 65
2020-11-19 18:00:00 17.7 4 Norte 8 Norte 0 -- -- 83
2020-11-19 17:00:00 19.9 4 Sudeste 9 Sudeste 0 -- -- 76
2020-11-19 16:00:00 21 7 Sur 11 Sudeste 0 -- -- 69
2020-11-19 15:00:00 21.3 6 Sur 11 Sur 0 -- -- 68
2020-11-19 14:00:00 20.6 7 Sudeste 11 Sudeste 0 -- -- 72
2020-11-19 13:00:00 20.1 7 Sur 15 Sur 0 -- -- 72
2020-11-19 12:00:00 20.1 10 Sur 16 Sur 0 -- -- 69
2020-11-19 11:00:00 19.9 6 Sur 11 Sur 0 -- -- 67
2020-11-19 10:00:00 17.4 3 Noroeste 17 Noroeste 0 -- -- 73
2020-11-19 09:00:00 14.9 6 Norte 23 Noroeste 0 -- -- 82
2020-11-19 08:00:00 13.5 15 Noroeste 24 Norte 0 -- -- 86
2020-11-19 07:00:00 13.5 14 Noroeste 23 Norte 0 -- -- 89
2020-11-19 06:00:00 13.9 15 Noroeste 21 Noroeste 0 -- -- 88
2020-11-19 05:00:00 14.8 13 Noroeste 20 Noroeste 0 -- -- 86
2020-11-19 04:00:00 15.5 7 Noroeste 15 Noroeste 0 -- -- 86
2020-11-19 03:00:00 15.9 10 Noroeste 15 Norte 0 -- -- 85
2020-11-19 02:00:00 16.3 7 Noroeste 14 Noroeste 0 -- -- 85
2020-11-19 01:00:00 16.5 7 Norte 13 Norte 0 -- -- 87
2020-11-19 00:00:00 16.6 9 Norte 14 Noroeste 0 -- -- 89
2020-11-18 23:00:00 16 10 Noroeste 16 Noroeste 0 -- -- 90
2020-11-18 22:00:00 15.8 12 Norte 15 Noroeste 0 -- -- 91
2020-11-18 21:00:00 15.4 4 Noroeste 9 Noroeste 0 -- -- 94
2020-11-18 20:00:00 14.8 6 Noroeste 8 Noroeste 0 -- -- 94
2020-11-18 19:00:00 15.1 3 Noroeste 6 Noroeste 0 -- -- 91
2020-11-18 18:00:00 16.9 0 Calma 6 Sudeste 0 -- -- 84
2020-11-18 17:00:00 18.5 6 Sur 14 Sur 0 -- -- 79
2020-11-18 16:00:00 19 9 Sur 16 Sur 0 -- -- 77
2020-11-18 15:00:00 19.5 10 Sur 17 Sur 0 -- -- 76
2020-11-18 14:00:00 19.9 10 Sur 16 Sur 0 -- -- 73
2020-11-18 13:00:00 20.5 9 Sudeste 18 Sudeste 0 -- -- 70
2020-11-18 12:00:00 20.2 5 Sudeste 12 Sudeste 0 -- -- 68
2020-11-18 11:00:00 18 3 Norte 12 Noroeste 0 -- -- 76
2020-11-18 10:00:00 16.9 6 Noroeste 13 Noroeste 0 -- -- 80
2020-11-18 09:00:00 16.1 7 Noroeste 13 Noroeste 0 -- -- 83
2020-11-18 08:00:00 15.7 6 Noroeste 10 Norte 0 -- -- 86
2020-11-18 07:00:00 15.6 4 Sur 10 Noroeste 0 -- -- 88
2020-11-18 06:00:00 15.4 8 Noroeste 15 Noroeste 0 -- -- 87
2020-11-18 05:00:00 15.1 11 Noroeste 19 Norte 0 -- -- 89
2020-11-18 04:00:00 15.2 11 Noroeste 17 Noroeste 0 -- -- 90
2020-11-18 03:00:00 14.9 11 Noroeste 17 Noroeste 0 -- -- 91
2020-11-18 02:00:00 14.5 8 Noroeste 12 Noroeste 0 -- -- 93
2020-11-18 01:00:00 13.6 8 Noroeste 12 Noroeste 0 -- -- 95
2020-11-18 00:00:00 13.4 6 Noroeste 8 Noroeste 0 -- -- 94
2020-11-17 23:00:00 13.8 0 Calma 9 Noroeste 0 -- -- 92
2020-11-17 22:00:00 14.5 8 Noroeste 10 Noroeste 0 -- -- 91
2020-11-17 21:00:00 15 6 Noroeste 9 Noroeste 0 -- -- 89
2020-11-17 20:00:00 16.1 2 Norte 5 Norte 0 -- -- 84
2020-11-17 19:00:00 16.9 0 Calma 6 Nordeste 0 -- -- 83
2020-11-17 18:00:00 16.9 0 Calma 10 Este 0 -- -- 83
2020-11-17 17:00:00 17.4 8 Este 14 Este 0 -- -- 81
2020-11-17 16:00:00 17.9 7 Este 18 Este 0 -- -- 79
2020-11-17 15:00:00 18.4 13 Este 19 Este 0 -- -- 78
2020-11-17 14:00:00 18.4 10 Este 19 Este 0 -- -- 78
2020-11-17 13:00:00 19.7 9 Sudeste 17 Sudeste 0 -- -- 74
2020-11-17 12:00:00 19.7 7 Sudeste 15 Sudeste 0 -- -- 75
2020-11-17 11:00:00 19.5 8 Sudeste 11 Este 0 -- -- 74
2020-11-17 10:00:00 17.7 2 Sur 15 Noroeste 0 -- -- 74
2020-11-17 09:00:00 14.4 12 Noroeste 17 Noroeste 0 -- -- 84
2020-11-17 08:00:00 12.9 12 Noroeste 21 Noroeste 0 -- -- 90
2020-11-17 07:00:00 13.6 5 Nordeste 15 Noroeste 0 -- -- 89
2020-11-17 06:00:00 13.9 10 Noroeste 15 Noroeste 0 -- -- 90
2020-11-17 05:00:00 14.2 12 Noroeste 17 Noroeste 0 -- -- 90
2020-11-17 04:00:00 15 0 Calma 15 Noroeste 0 -- -- 87
2020-11-17 03:00:00 15.8 10 Noroeste 17 Noroeste 0 -- -- 86
2020-11-17 02:00:00 15.7 12 Noroeste 19 Norte 0 -- -- 87
2020-11-17 01:00:00 16.1 6 Noroeste 11 Noroeste 0 -- -- 90
2020-11-17 00:00:00 16.5 4 Noroeste 7 Noroeste 0 -- -- 89
2020-11-16 23:00:00 16.7 4 Noroeste 8 Noroeste 0 -- -- 88
2020-11-16 22:00:00 16.8 0 Calma 7 Noroeste 0 -- -- 89
2020-11-16 21:00:00 16.5 6 Noroeste 8 Oeste 0 -- -- 90
2020-11-16 20:00:00 16.1 6 Noroeste 8 Noroeste 0 -- -- 89
2020-11-16 19:00:00 17.6 0 Calma 4 Oeste 0 -- -- 85
2020-11-16 18:00:00 18.1 2 Nordeste 10 Sudeste 0 -- -- 82
2020-11-16 17:00:00 19 6 Sudeste 18 Sudeste 0 -- -- 79
2020-11-16 16:00:00 20.3 12 Sudeste 35 Este 0 -- -- 66
2020-11-16 15:00:00 20.5 20 Este 40 Este 0 -- -- 67
2020-11-16 14:00:00 23.4 21 Este 29 Este 0 -- -- 51
2020-11-16 13:00:00 23.5 17 Nordeste 32 Nordeste 0 -- -- 50
2020-11-16 12:00:00 22.2 19 Norte 37 Norte 0 -- -- 53
2020-11-16 11:00:00 21.3 22 Norte 42 Norte 0 -- -- 56
2020-11-16 10:00:00 20.1 22 Norte 41 Norte 0 -- -- 64
2020-11-16 09:00:00 19.3 17 Norte 33 Norte 0 -- -- 69
2020-11-16 08:00:00 19.3 19 Norte 27 Norte 0 -- -- 65
2020-11-16 07:00:00 18.1 20 Norte 29 Noroeste 0 -- -- 66
2020-11-16 06:00:00 18.4 22 Norte 28 Norte 0 -- -- 67
2020-11-16 05:00:00 17.8 5 Norte 14 Noroeste 0 -- -- 72
2020-11-16 04:00:00 17.4 14 Noroeste 20 Norte 0 -- -- 74
2020-11-16 03:00:00 18.1 6 Oeste 13 Oeste 0 -- -- 72
2020-11-16 02:00:00 17.4 5 Noroeste 9 Noroeste 0 -- -- 75
2020-11-16 01:00:00 17.9 3 Oeste 12 Noroeste 0 -- -- 73
2020-11-16 00:00:00 18 8 Noroeste 15 Noroeste 0 -- -- 73
2020-11-15 23:00:00 18.4 11 Noroeste 15 Noroeste 0 -- -- 72
2020-11-15 22:00:00 18 9 Noroeste 13 Noroeste 0 -- -- 75
2020-11-15 21:00:00 17.2 4 Noroeste 8 Noroeste 0 -- -- 82
2020-11-15 20:00:00 17.7 5 Noroeste 10 Noroeste 0 -- -- 80
2020-11-15 19:00:00 18.8 10 Noroeste 15 Noroeste 0 -- -- 73
2020-11-15 18:00:00 18.9 6 Noroeste 12 Noroeste 0 -- -- 75
2020-11-15 17:00:00 20.7 0 Calma 7 Este 0 -- -- 68
2020-11-15 16:00:00 21.3 3 Este 13 Sur 0 -- -- 64
2020-11-15 15:00:00 21.1 6 Sur 16 Sur 0 -- -- 64
2020-11-15 14:00:00 21.1 8 Sur 13 Sur 0 -- -- 67
2020-11-15 13:00:00 20.8 6 Sur 15 Sur 0 -- -- 71
2020-11-15 12:00:00 20.6 8 Sudeste 13 Sur 0 -- -- 74
2020-11-15 11:00:00 19.4 5 Sudoeste 9 Sur 0 -- -- 73
2020-11-15 10:00:00 18.2 0 Calma 10 Noroeste 0 -- -- 72
2020-11-15 09:00:00 14.8 9 Noroeste 19 Noroeste 0 -- -- 85
2020-11-15 08:00:00 13.3 12 Noroeste 17 Noroeste 0 -- -- 91
2020-11-15 07:00:00 14 5 Noroeste 12 Noroeste 0 -- -- 90
2020-11-15 06:00:00 14.1 9 Noroeste 21 Noroeste 0 -- -- 92
2020-11-15 05:00:00 14 14 Noroeste 19 Noroeste 0 -- -- 93
2020-11-15 04:00:00 13.9 11 Noroeste 17 Noroeste 0 -- -- 94
2020-11-15 03:00:00 14.4 9 Noroeste 15 Noroeste 0 -- -- 94
2020-11-15 02:00:00 14.8 8 Noroeste 13 Norte 0 -- -- 95
2020-11-15 01:00:00 15.2 4 Noroeste 8 Noroeste 0 -- -- 94
2020-11-15 00:00:00 15.3 4 Noroeste 6 Noroeste 0 -- -- 95
2020-11-14 23:00:00 15.4 2 Noroeste 5 Noroeste 0 -- -- 94
2020-11-14 22:00:00 15.7 2 Oeste 10 Noroeste 0 -- -- 93
2020-11-14 21:00:00 15.6 6 Oeste 9 Oeste 0 -- -- 94
2020-11-14 20:00:00 15.6 4 Noroeste 5 Noroeste 0 -- -- 95
2020-11-14 19:00:00 16 4 Noroeste 5 Noroeste 0 -- -- 94
2020-11-14 18:00:00 16.6 2 Noroeste 7 Sudoeste 0.2 -- -- 93
2020-11-14 17:00:00 17.1 5 Sudoeste 6 Sur 0.2 -- -- 90
2020-11-14 16:00:00 17.4 5 Sur 10 Sudeste 0 -- -- 87
2020-11-14 15:00:00 17.7 7 Sur 13 Sur 0 -- -- 84
2020-11-14 14:00:00 18.6 8 Sur 14 Sur 0 -- -- 78
2020-11-14 13:00:00 19.2 7 Sudeste 12 Este 0 -- -- 78
2020-11-14 12:00:00 18.2 0 Calma 3 Sur 0 -- -- 81
2020-11-14 11:00:00 16.9 4 Noroeste 6 Noroeste 0 -- -- 84
2020-11-14 10:00:00 16.1 6 Noroeste 12 Noroeste 0 -- -- 85
2020-11-14 09:00:00 14.8 10 Noroeste 19 Noroeste 0 -- -- 86
2020-11-14 08:00:00 13.9 10 Noroeste 18 Noroeste 0 -- -- 91
2020-11-14 07:00:00 13.7 10 Noroeste 15 Noroeste 0 -- -- 92
2020-11-14 06:00:00 13.9 8 Norte 18 Noroeste 0 -- -- 92
2020-11-14 05:00:00 14 12 Noroeste 18 Noroeste 0 -- -- 92
2020-11-14 04:00:00 14.1 10 Noroeste 15 Noroeste 0 -- -- 93
2020-11-14 03:00:00 14.3 8 Noroeste 17 Noroeste 0 -- -- 93
2020-11-14 02:00:00 14.7 10 Noroeste 15 Norte 0 -- -- 92
2020-11-14 01:00:00 14.6 10 Noroeste 15 Noroeste 0 -- -- 92
2020-11-14 00:00:00 14.7 3 Noroeste 15 Noroeste 0 -- -- 92
2020-11-13 23:00:00 15.2 8 Noroeste 14 Noroeste 0 -- -- 92
2020-11-13 22:00:00 15 8 Noroeste 16 Noroeste 0 -- -- 94
2020-11-13 21:00:00 15.3 8 Noroeste 11 Noroeste 0 -- -- 93
2020-11-13 20:00:00 15.6 4 Norte 6 Norte 0 -- -- 93
2020-11-13 19:00:00 15.6 3 Norte 6 Noroeste 0 -- -- 93
2020-11-13 18:00:00 16.6 0 Calma 10 Sudeste 0 -- -- 89
2020-11-13 17:00:00 17.8 6 Sudeste 14 Sudeste 0 -- -- 86
2020-11-13 16:00:00 18.5 8 Sudeste 14 Sudeste 0 -- -- 81
2020-11-13 15:00:00 19.5 7 Sudeste 14 Sur 0 -- -- 72
2020-11-13 14:00:00 20.1 9 Sudeste 15 Sudeste 0 -- -- 71
2020-11-13 13:00:00 19.5 6 Sur 13 Sudeste 0 -- -- 74
2020-11-13 12:00:00 19 7 Sudeste 10 Sudeste 0 -- -- 75
2020-11-13 11:00:00 17.3 2 Este 12 Noroeste 0 -- -- 71
2020-11-13 10:00:00 16.5 7 Noroeste 18 Noroeste 0 -- -- 70
2020-11-13 09:00:00 14 11 Noroeste 25 Noroeste 0 -- -- 75
2020-11-13 08:00:00 13.3 16 Noroeste 25 Noroeste 0 -- -- 79
2020-11-13 07:00:00 12.9 13 Noroeste 22 Noroeste 0 -- -- 82
2020-11-13 06:00:00 13 14 Noroeste 21 Norte 0 -- -- 84
2020-11-13 05:00:00 13.1 14 Noroeste 22 Noroeste 0 -- -- 86
2020-11-13 04:00:00 12.9 14 Noroeste 21 Noroeste 0 -- -- 88
2020-11-13 03:00:00 13.1 12 Noroeste 21 Norte 0 -- -- 89
2020-11-13 02:00:00 12.9 14 Noroeste 24 Noroeste 0 -- -- 90
2020-11-13 01:00:00 13.1 13 Noroeste 21 Norte 0 -- -- 91
2020-11-13 00:00:00 13.2 10 Noroeste 17 Noroeste 0 -- -- 92
2020-11-12 23:00:00 13.4 12 Noroeste 18 Noroeste 0 -- -- 93
2020-11-12 22:00:00 13.7 12 Noroeste 15 Noroeste 0 -- -- 94
2020-11-12 21:00:00 14.3 8 Noroeste 14 Noroeste 0 -- -- 93
2020-11-12 20:00:00 14.7 9 Noroeste 14 Norte 0 -- -- 93
2020-11-12 19:00:00 15.5 4 Norte 5 Norte 0 -- -- 92
2020-11-12 18:00:00 16.6 0 Calma 7 Sudeste 0 -- -- 89
2020-11-12 17:00:00 17.4 4 Sudeste 9 Sudeste 0 -- -- 86
2020-11-12 16:00:00 18.1 6 Sudeste 12 Sudeste 0 -- -- 82
2020-11-12 15:00:00 19.1 7 Sudeste 13 Sur 0 -- -- 74
2020-11-12 14:00:00 19.7 8 Sudeste 15 Sudeste 0 -- -- 73
2020-11-12 13:00:00 19.6 4 Sur 9 Sur 0 -- -- 72
2020-11-12 12:00:00 18.6 3 Sur 8 Sudeste 0 -- -- 73
2020-11-12 11:00:00 18.4 4 Sur 11 Noroeste 0 -- -- 74
2020-11-12 10:00:00 15.3 9 Noroeste 17 Norte 0 -- -- 78
2020-11-12 09:00:00 13.8 7 Noroeste 17 Noroeste 0 -- -- 80
2020-11-12 08:00:00 12.9 11 Noroeste 21 Noroeste 0 -- -- 79
2020-11-12 07:00:00 12.5 15 Norte 21 Norte 0 -- -- 81
2020-11-12 06:00:00 12.4 14 Noroeste 22 Noroeste 0 -- -- 84
2020-11-12 05:00:00 12.5 13 Noroeste 21 Noroeste 0 -- -- 86
2020-11-12 04:00:00 13 9 Noroeste 14 Noroeste 0 -- -- 84
2020-11-12 03:00:00 13.6 7 Oeste 17 Noroeste 0 -- -- 84
2020-11-12 02:00:00 13.5 3 Sudoeste 14 Oeste 0 -- -- 85
2020-11-12 01:00:00 13.6 8 Noroeste 16 Noroeste 0 -- -- 87
2020-11-12 00:00:00 13.5 5 Oeste 13 Oeste 0 -- -- 88
2020-11-11 23:00:00 13.5 10 Noroeste 14 Noroeste 0 -- -- 88
2020-11-11 22:00:00 13.5 8 Noroeste 13 Noroeste 0 -- -- 87
2020-11-11 21:00:00 13.7 9 Noroeste 12 Noroeste 0 -- -- 87
2020-11-11 20:00:00 14 9 Noroeste 11 Noroeste 0 -- -- 86
2020-11-11 19:00:00 14.6 4 Noroeste 6 Noroeste 0 -- -- 85
2020-11-11 18:00:00 16.6 3 Sudoeste 13 Sur 0 -- -- 80
2020-11-11 17:00:00 18 8 Sur 21 Sur 0 -- -- 76
2020-11-11 16:00:00 18.6 14 Sur 22 Sur 0 -- -- 75
2020-11-11 15:00:00 19.4 9 Sur 19 Sur 0 -- -- 71
2020-11-11 14:00:00 19.2 10 Sur 18 Sur 0 -- -- 72
2020-11-11 13:00:00 19.2 10 Sudeste 17 Sudeste 0 -- -- 74
2020-11-11 12:00:00 19.3 10 Sur 16 Sur 0 -- -- 74
2020-11-11 11:00:00 19 4 Sur 9 Sur 0 -- -- 72
2020-11-11 10:00:00 16.6 2 Norte 17 Norte 0 -- -- 73
2020-11-11 09:00:00 13.6 12 Noroeste 21 Noroeste 0 -- -- 82
2020-11-11 08:00:00 11.8 16 Noroeste 21 Noroeste 0 -- -- 87
2020-11-11 07:00:00 12.1 14 Noroeste 21 Noroeste 0 -- -- 87
2020-11-11 06:00:00 12.2 15 Noroeste 21 Noroeste 0 -- -- 87
2020-11-11 05:00:00 12.5 13 Noroeste 19 Noroeste 0 -- -- 85
2020-11-11 04:00:00 13.1 5 Noroeste 22 Noroeste 0 -- -- 85
2020-11-11 03:00:00 13.1 16 Noroeste 24 Norte 0 -- -- 86
2020-11-11 02:00:00 13.1 15 Noroeste 23 Norte 0 -- -- 89
2020-11-11 01:00:00 13.5 6 Noroeste 19 Noroeste 0 -- -- 88
2020-11-11 00:00:00 13.5 10 Noroeste 21 Norte 0 -- -- 89
2020-11-10 23:00:00 13.5 12 Noroeste 19 Noroeste 0 -- -- 88
2020-11-10 22:00:00 14.4 11 Noroeste 16 Norte 0 -- -- 85
2020-11-10 21:00:00 14.9 11 Noroeste 15 Noroeste 0 -- -- 83
2020-11-10 20:00:00 15.7 6 Noroeste 9 Noroeste 0 -- -- 81
2020-11-10 19:00:00 15.3 6 Noroeste 9 Noroeste 0 -- -- 82
2020-11-10 18:00:00 16.8 4 Noroeste 7 Sudeste 0 -- -- 76
2020-11-10 17:00:00 18.7 5 Sudeste 12 Sudeste 0 -- -- 67
2020-11-10 16:00:00 19.5 5 Sudeste 16 Sudeste 0 -- -- 66
2020-11-10 15:00:00 19.6 8 Sudeste 17 Sudeste 0 -- -- 65
2020-11-10 14:00:00 19.7 10 Sudeste 18 Sudeste 0 -- -- 67
2020-11-10 13:00:00 -- 11 Sudeste 18 Sur 0 -- -- 68
2020-11-10 12:00:00 -- 9 Sudeste 15 Este 0 -- -- 45
2020-11-10 11:00:00 -- 8 Este 11 Este 0 -- -- 42
2020-11-10 10:00:00 17.9 6 Norte 12 Noroeste 0 -- -- 60
2020-11-10 09:00:00 15.5 2 Sudoeste 15 Norte 0 -- -- 70
2020-11-10 08:00:00 13.2 6 Oeste 10 Noroeste 0 -- -- 77
2020-11-10 07:00:00 13.6 3 Noroeste 21 Norte 0 -- -- 76
2020-11-10 06:00:00 14.1 13 Norte 22 Noroeste 0 -- -- 75
2020-11-10 05:00:00 14.9 16 Noroeste 25 Noroeste 0 -- -- 74
2020-11-10 04:00:00 14.5 19 Noroeste 24 Noroeste 0 -- -- 77
2020-11-10 03:00:00 15.4 16 Noroeste 24 Noroeste 0 -- -- 75
2020-11-10 02:00:00 15.7 11 Noroeste 18 Noroeste 0 -- -- 76
2020-11-10 01:00:00 15.8 4 Noroeste 12 Noroeste 0 -- -- 78
2020-11-10 00:00:00 15.6 5 Oeste 8 Noroeste 0 -- -- 82
2020-11-09 23:00:00 16.1 4 Sudoeste 12 Norte 0 -- -- 82
2020-11-09 22:00:00 15.9 3 Oeste 9 Noroeste 0 -- -- 85
2020-11-09 21:00:00 15.9 0 Calma 11 Noroeste 0 -- -- 85
2020-11-09 20:00:00 15.6 7 Noroeste 10 Noroeste 0 -- -- 87
2020-11-09 19:00:00 15.7 6 Noroeste 8 Noroeste 0 -- -- 87
2020-11-09 18:00:00 17.4 3 Noroeste 5 Noroeste 0 -- -- 82
2020-11-09 17:00:00 19.1 3 Sur 8 Sur 0 -- -- 76
2020-11-09 16:00:00 19.4 4 Sur 13 Sudeste 0 -- -- 71
2020-11-09 15:00:00 19.2 7 Sur 18 Sudeste 0 -- -- 76
2020-11-09 14:00:00 19 8 Sudeste 17 Sudeste 0 -- -- 78
2020-11-09 13:00:00 18.9 9 Sudeste 19 Sudeste 0 -- -- 78
2020-11-09 12:00:00 19.3 8 Sudeste 13 Sur 0 -- -- 71
2020-11-09 11:00:00 17.7 4 Este 12 Norte 0 -- -- 74
2020-11-09 10:00:00 15.8 3 Norte 16 Noroeste 0 -- -- 75
2020-11-09 09:00:00 13.2 12 Noroeste 19 Noroeste 0 -- -- 76
2020-11-09 08:00:00 11.7 13 Noroeste 19 Noroeste 0 -- -- 82
2020-11-09 07:00:00 11.6 14 Noroeste 18 Noroeste 0 -- -- 85
2020-11-09 06:00:00 11.9 14 Noroeste 23 Noroeste 0 -- -- 87
2020-11-09 05:00:00 12.2 12 Noroeste 22 Noroeste 0 -- -- 89
2020-11-09 04:00:00 11.9 16 Noroeste 21 Noroeste 0 -- -- 90
2020-11-09 03:00:00 12.7 9 Noroeste 18 Noroeste 0 -- -- 88
2020-11-09 02:00:00 13.3 12 Norte 20 Noroeste 0 -- -- 86
2020-11-09 01:00:00 13.1 10 Noroeste 20 Norte 0 -- -- 89
2020-11-09 00:00:00 13.4 8 Noroeste 21 Noroeste 0 -- -- 90
2020-11-08 23:00:00 13.7 10 Noroeste 18 Norte 0 -- -- 93
2020-11-08 22:00:00 14 10 Noroeste 19 Noroeste 0 -- -- 93
2020-11-08 21:00:00 14.4 11 Noroeste 17 Norte 0 -- -- 94
2020-11-08 20:00:00 14.9 8 Noroeste 11 Noroeste 0 -- -- 94
2020-11-08 19:00:00 15.1 4 Noroeste 7 Noroeste 0 -- -- 91
2020-11-08 18:00:00 17.1 4 Noroeste 7 Sur 0 -- -- 84
2020-11-08 17:00:00 18.7 5 Sur 9 Sudeste 0 -- -- 79
2020-11-08 16:00:00 18.8 6 Sur 12 Sur 0 -- -- 78
2020-11-08 15:00:00 19.2 6 Sur 12 Sudeste 0 -- -- 76
2020-11-08 14:00:00 19.4 7 Sudeste 14 Sudeste 0 -- -- 74
2020-11-08 13:00:00 20 5 Sur 13 Sudeste 0 -- -- 69
2020-11-08 12:00:00 19.6 8 Sudeste 14 Sudeste 0 -- -- 68
2020-11-08 11:00:00 19.7 5 Sur 9 Sudeste 0 -- -- 69
2020-11-08 10:00:00 17.6 5 Noroeste 22 Norte 0 -- -- 64
2020-11-08 09:00:00 14.5 17 Noroeste 27 Noroeste 0 -- -- 70
2020-11-08 08:00:00 12.9 20 Noroeste 27 Norte 0 -- -- 75
2020-11-08 07:00:00 13 17 Noroeste 24 Noroeste 0 -- -- 76
2020-11-08 06:00:00 13.4 15 Noroeste 24 Noroeste 0 -- -- 74
2020-11-08 05:00:00 13.1 15 Noroeste 23 Noroeste 0 -- -- 79
2020-11-08 04:00:00 13.8 12 Noroeste 14 Noroeste 0 -- -- 80
2020-11-08 03:00:00 14.5 7 Norte 16 Noroeste 0 -- -- 80
2020-11-08 02:00:00 14.5 3 Sudoeste 28 Noroeste 0 -- -- 75
2020-11-08 01:00:00 14.5 4 Sur 18 Norte 0 -- -- 79
2020-11-08 00:00:00 15.1 6 Noroeste 18 Oeste 0 -- -- 80
2020-11-07 23:00:00 15.1 3 Nordeste 21 Oeste 0 -- -- 82
2020-11-07 22:00:00 16.1 12 Noroeste 24 Oeste 0 -- -- 80
2020-11-07 21:00:00 15.3 9 Oeste 13 Oeste 0 -- -- 85
2020-11-07 20:00:00 15.7 8 Noroeste 12 Nordeste 0 -- -- 86
2020-11-07 19:00:00 16.4 9 Nordeste 15 Sudoeste 0 -- -- 85
2020-11-07 18:00:00 17.9 8 Oeste 15 Oeste 0 -- -- 78
2020-11-07 17:00:00 19.6 9 Sur 17 Sudoeste 0 -- -- 73
2020-11-07 16:00:00 20 12 Sudoeste 25 Sudoeste 0 -- -- 71
2020-11-07 15:00:00 18.5 13 Sur 26 Sur 0 -- -- 81
2020-11-07 14:00:00 19.6 14 Sur 24 Sur 0 -- -- 76
2020-11-07 13:00:00 18.8 11 Sur 18 Sudoeste 0 -- -- 77
2020-11-07 12:00:00 18.1 12 Sudoeste 19 Sudoeste 0 -- -- 82
2020-11-07 11:00:00 16.7 11 Sudoeste 17 Sudoeste 0 -- -- 90
2020-11-07 10:00:00 15.3 3 Oeste 8 Nordeste 0.4 -- -- 92
2020-11-07 09:00:00 15.4 6 Nordeste 33 Noroeste 0.2 -- -- 88
2020-11-07 08:00:00 15.9 25 Noroeste 60 Oeste 6 -- -- 85
2020-11-07 07:00:00 18.8 17 Este 29 Nordeste 1.4 -- -- 96
2020-11-07 06:00:00 18.8 18 Este 40 Nordeste 0.2 -- -- 94
2020-11-07 05:00:00 18.9 20 Nordeste 32 Nordeste 0.2 -- -- 93
2020-11-07 04:00:00 19.1 13 Nordeste 38 Nordeste 0 -- -- 91
2020-11-07 03:00:00 19.2 17 Nordeste 33 Nordeste 0 -- -- 90
2020-11-07 02:00:00 19.2 16 Nordeste 28 Nordeste 0 -- -- 88
2020-11-07 01:00:00 18.9 8 Nordeste 21 Nordeste 0 -- -- 88
2020-11-07 00:00:00 18.9 8 Nordeste 24 Nordeste 0 -- -- 90
2020-11-06 23:00:00 18.8 9 Nordeste 21 Nordeste 0 -- -- 90
2020-11-06 22:00:00 18.8 8 Norte 14 Nordeste 0 -- -- 91
2020-11-06 21:00:00 19 9 Nordeste 25 Nordeste 0 -- -- 89
2020-11-06 20:00:00 19 18 Nordeste 30 Este 0 -- -- 91
2020-11-06 19:00:00 18.9 19 Nordeste 32 Este 0 -- -- 91
2020-11-06 18:00:00 18.8 21 Nordeste 33 Nordeste 0 -- -- 92
2020-11-06 17:00:00 18.9 23 Nordeste 38 Nordeste 0 -- -- 91
2020-11-06 16:00:00 19.1 19 Nordeste 33 Este 0 -- -- 91
2020-11-06 15:00:00 19.4 18 Nordeste 39 Este 0 -- -- 90
2020-11-06 14:00:00 19.4 21 Nordeste 35 Nordeste 0 -- -- 91
2020-11-06 13:00:00 18.9 24 Este 38 Nordeste 0 -- -- 92
2020-11-06 12:00:00 18.7 22 Nordeste 41 Este 0 -- -- 91
2020-11-06 11:00:00 18.5 22 Nordeste 40 Nordeste 0 -- -- 91
2020-11-06 10:00:00 18.3 21 Nordeste 39 Este 0 -- -- 92
2020-11-06 09:00:00 18.2 22 Nordeste 38 Nordeste 0 -- -- 92
2020-11-06 08:00:00 18.1 21 Nordeste 39 Este 0 -- -- 93
2020-11-06 07:00:00 18.1 19 Nordeste 33 Nordeste 0 -- -- 94
2020-11-06 06:00:00 18.2 21 Nordeste 34 Nordeste 0 -- -- 94
2020-11-06 05:00:00 18.1 15 Nordeste 24 Nordeste 0 -- -- 93
2020-11-06 04:00:00 17.3 11 Norte 21 Norte 0 -- -- 92
2020-11-06 03:00:00 17.5 9 Norte 16 Norte 0 -- -- 93
2020-11-06 02:00:00 17.5 9 Noroeste 16 Nordeste 0 -- -- 92
2020-11-06 01:00:00 17.4 7 Norte 19 Norte 0 -- -- 92
2020-11-06 00:00:00 16.9 13 Norte 20 Este 0.2 -- -- 94
2020-11-05 23:00:00 17.6 13 Este 27 Nordeste 3.6 -- -- 96
2020-11-05 22:00:00 17.2 16 Nordeste 44 Nordeste 2.8 -- -- 96
2020-11-05 21:00:00 16.9 27 Nordeste 52 Este 4.6 -- -- 96
2020-11-05 20:00:00 17.1 28 Nordeste 51 Nordeste 1.4 -- -- 94
2020-11-05 19:00:00 17.3 24 Este 46 Este 0.2 -- -- 91
2020-11-05 18:00:00 16.9 24 Nordeste 42 Nordeste 0 -- -- 91
2020-11-05 17:00:00 16.5 22 Nordeste 35 Nordeste 0 -- -- 91
2020-11-05 16:00:00 15.4 14 Nordeste 28 Norte 0.2 -- -- 93
2020-11-05 15:00:00 15.1 14 Norte 31 Norte 0 -- -- 91
2020-11-05 14:00:00 14.7 19 Norte 34 Nordeste 0 -- -- 90
2020-11-05 13:00:00 14.5 19 Norte 34 Norte 0 -- -- 89
2020-11-05 12:00:00 14.1 19 Norte 35 Norte 0 -- -- 87
2020-11-05 11:00:00 14.1 21 Norte 36 Norte 0 -- -- 84
2020-11-05 10:00:00 14 20 Norte 34 Norte 0.2 -- -- 80
2020-11-05 09:00:00 13.8 18 Norte 30 Norte 0 -- -- 80
2020-11-05 08:00:00 14.1 15 Norte 28 Norte 0 -- -- 79
2020-11-05 07:00:00 13.5 17 Norte 30 Norte 0 -- -- 83
2020-11-05 06:00:00 13.7 19 Norte 33 Norte 0 -- -- 80
2020-11-05 05:00:00 13.6 18 Norte 31 Norte 0 -- -- 82
2020-11-05 04:00:00 13.8 18 Norte 31 Norte 0 -- -- 82
2020-11-05 03:00:00 13.7 21 Norte 33 Norte 0 -- -- 83
2020-11-05 02:00:00 13.6 19 Norte 37 Norte 0 -- -- 86
2020-11-05 01:00:00 13.5 18 Norte 32 Noroeste 0 -- -- 87
2020-11-05 00:00:00 12.6 20 Norte 35 Norte 2.4 -- -- 91
2020-11-04 23:00:00 12.4 20 Norte 32 Noroeste 0 -- -- 91
2020-11-04 22:00:00 12.1 18 Norte 27 Noroeste 2 -- -- 92
2020-11-04 21:00:00 12.5 21 Norte 33 Norte 0.2 -- -- 84
2020-11-04 20:00:00 12.3 19 Norte 31 Norte 0 -- -- 88
2020-11-04 19:00:00 12.2 17 Norte 27 Norte 0.2 -- -- 90
2020-11-04 18:00:00 11.9 17 Norte 30 Noroeste 0 -- -- 91
2020-11-04 17:00:00 12 17 Norte 30 Norte 0 -- -- 90
2020-11-04 16:00:00 12.8 13 Norte 26 Norte 0 -- -- 88
2020-11-04 15:00:00 13.1 16 Norte 28 Norte 0.2 -- -- 86
2020-11-04 14:00:00 12.8 13 Norte 28 Norte 0 -- -- 90
2020-11-04 13:00:00 12.6 15 Norte 30 Noroeste 0 -- -- 91
2020-11-04 12:00:00 12.3 16 Norte 35 Norte 0.8 -- -- 92
2020-11-04 11:00:00 11.3 22 Norte 36 Norte 2.8 -- -- 93
2020-11-04 10:00:00 10.9 22 Norte 33 Norte 2.4 -- -- 92
2020-11-04 09:00:00 10.5 17 Noroeste 39 Norte 3.6 -- -- 93
2020-11-04 08:00:00 10.9 23 Norte 40 Noroeste 1.2 -- -- 89
2020-11-04 07:00:00 11 24 Norte 43 Norte 0 -- -- 88
2020-11-04 06:00:00 10.6 22 Norte 44 Norte 2 -- -- 90
2020-11-04 05:00:00 11 22 Norte 39 Norte 1.2 -- -- 91
2020-11-04 04:00:00 11.4 22 Norte 37 Norte 2.8 -- -- 90
2020-11-04 03:00:00 14.2 7 Nordeste 23 Norte 0.2 -- -- 79
2020-11-04 02:00:00 15.9 13 Norte 22 Nordeste 0 -- -- 61
2020-11-04 01:00:00 16 9 Nordeste 29 Norte 0 -- -- 64
2020-11-04 00:00:00 17 16 Norte 28 Norte 0 -- -- 57
2020-11-03 23:00:00 17.1 18 Norte 34 Noroeste 0 -- -- 56
2020-11-03 22:00:00 17.3 17 Norte 33 Noroeste 0 -- -- 55
2020-11-03 21:00:00 17.4 14 Norte 31 Noroeste 0 -- -- 55
2020-11-03 20:00:00 17.4 19 Norte 32 Noroeste 0 -- -- 56
2020-11-03 19:00:00 17.9 17 Norte 31 Norte 0 -- -- 57
2020-11-03 18:00:00 18.1 18 Norte 33 Noroeste 0 -- -- 57
2020-11-03 17:00:00 19.5 17 Norte 29 Norte 0 -- -- 56
2020-11-03 16:00:00 20.5 12 Nordeste 22 Nordeste 0 -- -- 55
2020-11-03 15:00:00 19.6 9 Nordeste 17 Este 0 -- -- 75
2020-11-03 14:00:00 20.2 12 Este 19 Este 0 -- -- 71
2020-11-03 13:00:00 20.4 13 Este 21 Este 0 -- -- 67
2020-11-03 12:00:00 21.3 13 Este 21 Este 0 -- -- 63
2020-11-03 11:00:00 20.1 9 Este 14 Norte 0 -- -- 66
2020-11-03 10:00:00 18.4 11 Norte 22 Norte 0 -- -- 76
2020-11-03 09:00:00 17.7 12 Norte 24 Noroeste 0 -- -- 80
2020-11-03 08:00:00 16.9 15 Norte 23 Norte 0 -- -- 84
2020-11-03 07:00:00 16.5 14 Noroeste 23 Noroeste 0 -- -- 86
2020-11-03 06:00:00 16.2 13 Norte 22 Noroeste 0 -- -- 88
2020-11-03 05:00:00 15.5 17 Noroeste 24 Noroeste 0 -- -- 90
2020-11-03 04:00:00 15.5 15 Noroeste 23 Norte 0 -- -- 90
2020-11-03 03:00:00 15.5 16 Norte 21 Norte 0 -- -- 90
2020-11-03 02:00:00 16.1 8 Noroeste 11 Noroeste 0 -- -- 90
2020-11-03 01:00:00 15.9 3 Noroeste 12 Noroeste 0 -- -- 92
2020-11-03 00:00:00 15.5 9 Noroeste 14 Noroeste 0 -- -- 93
2020-11-02 23:00:00 15.2 0 Calma 15 Noroeste 0 -- -- 92
2020-11-02 22:00:00 15.5 13 Noroeste 17 Noroeste 0 -- -- 91
2020-11-02 21:00:00 16.2 8 Noroeste 10 Noroeste 0 -- -- 91
2020-11-02 20:00:00 16.1 7 Noroeste 8 Noroeste 0 -- -- 91
2020-11-02 19:00:00 16.6 6 Noroeste 8 Noroeste 0 -- -- 87
2020-11-02 18:00:00 19 2 Sur 8 Sur 0 -- -- 81
2020-11-02 17:00:00 19.5 6 Sur 15 Sur 0 -- -- 81
2020-11-02 16:00:00 20.5 10 Sur 17 Sur 0 -- -- 76
2020-11-02 15:00:00 21.1 9 Sur 14 Sur 0 -- -- 72
2020-11-02 14:00:00 21.4 9 Sur 15 Sudeste 0 -- -- 71
2020-11-02 13:00:00 21.5 8 Sudeste 15 Sudeste 0 -- -- 69
2020-11-02 12:00:00 21.4 6 Sudeste 13 Sur 0 -- -- 69
2020-11-02 11:00:00 20.3 6 Sudeste 10 Sudeste 0 -- -- 73
2020-11-02 10:00:00 18 7 Norte 16 Noroeste 0 -- -- 80
2020-11-02 09:00:00 15.1 13 Noroeste 23 Norte 0 -- -- 82
2020-11-02 08:00:00 14.6 14 Noroeste 22 Noroeste 0 -- -- 78
2020-11-02 07:00:00 14.2 15 Noroeste 24 Norte 0 -- -- 91
2020-11-02 06:00:00 14.6 9 Noroeste 19 Norte 0 -- -- 92
2020-11-02 05:00:00 15.5 9 Noroeste 17 Noroeste 0 -- -- 89
2020-11-02 04:00:00 15.2 12 Noroeste 17 Noroeste 0 -- -- 86
2020-11-02 03:00:00 15 9 Noroeste 14 Noroeste 0 -- -- 85
2020-11-02 02:00:00 15.2 6 Noroeste 9 Noroeste 0 -- -- 91
2020-11-02 01:00:00 14.2 5 Noroeste 14 Noroeste 0 -- -- 85
2020-11-02 00:00:00 15.3 13 Noroeste 17 Noroeste 0 -- -- 82
2020-11-01 23:00:00 15.3 8 Noroeste 12 Noroeste 0 -- -- 87
2020-11-01 22:00:00 15.8 5 Noroeste 13 Noroeste 0 -- -- 89
2020-11-01 21:00:00 16 6 Noroeste 13 Noroeste 0 -- -- 87
2020-11-01 20:00:00 16.4 7 Noroeste 11 Noroeste 0 -- -- 88
2020-11-01 19:00:00 17.1 4 Noroeste 6 Noroeste 0 -- -- 84
2020-11-01 18:00:00 18.8 4 Este 12 Sur 0 -- -- 81
2020-11-01 17:00:00 20.9 8 Sur 15 Sur 0 -- -- 73
2020-11-01 16:00:00 21.6 9 Sur 14 Sur 0 -- -- 63
2020-11-01 15:00:00 21.8 9 Sur 18 Sur 0 -- -- 73
2020-11-01 14:00:00 22.1 9 Sur 18 Sur 0 -- -- 70
2020-11-01 13:00:00 22.1 8 Sur 14 Sur 0 -- -- 69
2020-11-01 12:00:00 21.7 8 Sur 15 Sudeste 0 -- -- 69
2020-11-01 11:00:00 21.2 5 Sur 11 Sudoeste 0 -- -- 67
2020-11-01 10:00:00 19.6 2 Sudeste 5 Sudeste 0 -- -- 65
2020-11-01 09:00:00 16.3 0 Calma 8 Norte 0 -- -- 69
2020-11-01 08:00:00 14 5 Noroeste 18 Noroeste 0 -- -- 68
2020-11-01 07:00:00 14.5 10 Noroeste 19 Norte 0 -- -- 69
2020-11-01 06:00:00 14.3 12 Noroeste 21 Noroeste 0 -- -- 70
2020-11-01 05:00:00 14.9 10 Noroeste 14 Noroeste 0 -- -- 69
2020-11-01 04:00:00 14.1 4 Norte 12 Noroeste 0 -- -- 76
2020-11-01 03:00:00 14.7 7 Norte 17 Noroeste 0 -- -- 72
2020-11-01 02:00:00 14.7 12 Noroeste 19 Noroeste 0 -- -- 74
2020-11-01 01:00:00 14.7 4 Noroeste 16 Noroeste 0 -- -- 79
2020-11-01 00:00:00 15.2 3 Norte 14 Noroeste 0 -- -- 84
2020-10-31 23:00:00 15.1 8 Noroeste 13 Norte 0 -- -- 85
2020-10-31 22:00:00 14.8 3 Norte 8 Noroeste 0 -- -- 91
2020-10-31 21:00:00 15.4 5 Noroeste 12 Noroeste 0 -- -- 90
2020-10-31 20:00:00 15.9 6 Noroeste 10 Norte 0 -- -- 89
2020-10-31 19:00:00 16.9 5 Noroeste 9 Noroeste 0 -- -- 86
2020-10-31 18:00:00 18.9 0 Calma 12 Sur 0 -- -- 80
2020-10-31 17:00:00 20 8 Sur 13 Sur 0 -- -- 74
2020-10-31 16:00:00 20.6 9 Sur 16 Sur 0 -- -- 71
2020-10-31 15:00:00 21.1 9 Sur 16 Sur 0 -- -- 70
2020-10-31 14:00:00 21.4 8 Sur 17 Sudeste 0 -- -- 65
2020-10-31 13:00:00 21.2 9 Sur 17 Sur 0 -- -- 66
2020-10-31 12:00:00 21 8 Sur 14 Sur 0 -- -- 67
2020-10-31 11:00:00 20.7 5 Sur 10 Este 0 -- -- 62
2020-10-31 10:00:00 18.6 6 Este 12 Norte 0 -- -- 67
2020-10-31 09:00:00 15.6 5 Norte 16 Norte 0 -- -- 71
2020-10-31 08:00:00 14 12 Noroeste 22 Norte 0 -- -- 72
2020-10-31 07:00:00 13.7 12 Noroeste 20 Noroeste 0 -- -- 74
2020-10-31 06:00:00 13.5 14 Noroeste 20 Noroeste 0 -- -- 77
2020-10-31 05:00:00 13.7 13 Noroeste 19 Noroeste 0 -- -- 78
2020-10-31 04:00:00 13.4 8 Noroeste 16 Noroeste 0 -- -- 80
2020-10-31 03:00:00 14.4 12 Noroeste 17 Noroeste 0 -- -- 78
2020-10-31 02:00:00 14.4 9 Norte 16 Noroeste 0 -- -- 80
2020-10-31 01:00:00 14.8 5 Norte 17 Noroeste 0 -- -- 80
2020-10-31 00:00:00 14.8 9 Noroeste 13 Noroeste 0 -- -- 79
2020-10-30 23:00:00 14.6 8 Noroeste 12 Noroeste 0 -- -- 77
2020-10-30 22:00:00 15.1 9 Noroeste 12 Noroeste 0 -- -- 80
2020-10-30 21:00:00 15.5 8 Noroeste 10 Noroeste 0 -- -- 81
2020-10-30 20:00:00 15.3 7 Noroeste 9 Noroeste 0 -- -- 85
2020-10-30 19:00:00 16.4 4 Noroeste 7 Noroeste 0 -- -- 82
2020-10-30 18:00:00 18.9 3 Sudoeste 8 Sur 0 -- -- 74
2020-10-30 17:00:00 20 5 Sur 13 Sudeste 0 -- -- 73
2020-10-30 16:00:00 20.5 7 Sur 15 Sudeste 0 -- -- 71
2020-10-30 15:00:00 21 9 Sur 16 Sudoeste 0 -- -- 70
2020-10-30 14:00:00 21.3 10 Sur 17 Sur 0 -- -- 65
2020-10-30 13:00:00 21.1 7 Sur 14 Sur 0 -- -- 66
2020-10-30 12:00:00 20.8 7 Sudeste 14 Sur 0 -- -- 67
2020-10-30 11:00:00 20.6 5 Sudeste 11 Sudeste 0 -- -- 64
2020-10-30 10:00:00 18.2 3 Este 12 Norte 0 -- -- 68
2020-10-30 09:00:00 15.5 10 Norte 19 Norte 0 -- -- 71
2020-10-30 08:00:00 13.4 8 Noroeste 18 Norte 0 -- -- 79
2020-10-30 07:00:00 13.1 12 Noroeste 22 Noroeste 0 -- -- 82
2020-10-30 06:00:00 13 12 Noroeste 17 Noroeste 0 -- -- 84
2020-10-30 05:00:00 13.1 12 Noroeste 17 Noroeste 0 -- -- 84
2020-10-30 04:00:00 13.7 12 Noroeste 18 Norte 0 -- -- 84
2020-10-30 03:00:00 13.9 14 Noroeste 19 Noroeste 0 -- -- 85
2020-10-30 02:00:00 13.9 14 Noroeste 21 Noroeste 0 -- -- 87
2020-10-30 01:00:00 13.9 13 Noroeste 18 Noroeste 0 -- -- 87
2020-10-30 00:00:00 14.3 12 Noroeste 17 Noroeste 0 -- -- 89
2020-10-29 23:00:00 15 7 Noroeste 13 Noroeste 0 -- -- 89
2020-10-29 22:00:00 15.5 8 Noroeste 13 Noroeste 0 -- -- 90
2020-10-29 21:00:00 16.3 8 Noroeste 9 Noroeste 0 -- -- 89
2020-10-29 20:00:00 16.3 3 Noroeste 6 Noroeste 0 -- -- 87
2020-10-29 19:00:00 17.3 3 Noroeste 5 Noroeste 0 -- -- 80
2020-10-29 18:00:00 19.5 0 Calma 11 Sudeste 0 -- -- 75
2020-10-29 17:00:00 20.5 7 Sur 13 Sur 0 -- -- 71
2020-10-29 16:00:00 21.3 8 Sur 17 Sur 0 -- -- 63
2020-10-29 15:00:00 21.6 7 Sudeste 15 Sudeste 0 -- -- 59
2020-10-29 14:00:00 21.5 9 Sudeste 17 Este 0 -- -- 62
2020-10-29 13:00:00 21.4 10 Sudeste 17 Sudeste 0 -- -- 67
2020-10-29 12:00:00 20.9 9 Sur 18 Sur 0 -- -- 69
2020-10-29 11:00:00 20.5 10 Sur 16 Sur 0 -- -- 68
2020-10-29 10:00:00 19.8 5 Sudeste 10 Sudeste 0 -- -- 59
2020-10-29 09:00:00 17.5 2 Sur 21 Noroeste 0 -- -- 62
2020-10-29 08:00:00 14.9 15 Norte 23 Noroeste 0 -- -- 67
2020-10-29 07:00:00 14.6 6 Noroeste 14 Noroeste 0 -- -- 69
2020-10-29 06:00:00 15.3 9 Noroeste 18 Norte 0 -- -- 67
2020-10-29 05:00:00 16 13 Noroeste 24 Noroeste 0 -- -- 64
2020-10-29 04:00:00 15 18 Noroeste 26 Noroeste 0 -- -- 67
2020-10-29 03:00:00 15.4 3 Noroeste 27 Noroeste 0 -- -- 66
2020-10-29 02:00:00 15.1 13 Noroeste 23 Noroeste 0 -- -- 65
2020-10-29 01:00:00 14.1 9 Noroeste 16 Noroeste 0 -- -- 68
2020-10-29 00:00:00 15.3 9 Noroeste 14 Noroeste 0 -- -- 60
2020-10-28 23:00:00 15.6 9 Noroeste 13 Noroeste 0 -- -- 59
2020-10-28 22:00:00 15.4 9 Noroeste 17 Noroeste 0 -- -- 67
2020-10-28 21:00:00 15.9 8 Noroeste 13 Norte 0 -- -- 72
2020-10-28 20:00:00 16.5 7 Noroeste 10 Noroeste 0 -- -- 71
2020-10-28 19:00:00 17.4 5 Noroeste 8 Noroeste 0 -- -- 69
2020-10-28 18:00:00 19.5 2 Sur 9 Sur 0 -- -- 63
2020-10-28 17:00:00 20 5 Sur 13 Sur 0 -- -- 61
2020-10-28 16:00:00 20.2 9 Sur 14 Sur 0 -- -- 61
2020-10-28 15:00:00 20.7 9 Sur 14 Sudeste 0 -- -- 56
2020-10-28 14:00:00 20.8 8 Sudeste 17 Sur 0 -- -- 57
2020-10-28 13:00:00 20.4 10 Sur 18 Sur 0 -- -- 54
2020-10-28 12:00:00 21.1 9 Sudeste 15 Sudeste 0 -- -- 50
2020-10-28 11:00:00 21.4 9 Sudeste 14 Sudeste 0 -- -- 43
2020-10-28 10:00:00 20.1 4 Sur 11 Norte 0 -- -- 43
2020-10-28 09:00:00 16.8 9 Norte 20 Norte 0 -- -- 50
2020-10-28 08:00:00 14 13 Noroeste 20 Noroeste 0 -- -- 55
2020-10-28 07:00:00 14.4 9 Noroeste 19 Noroeste 0 -- -- 54
2020-10-28 06:00:00 14.3 9 Noroeste 18 Noroeste 0 -- -- 54
2020-10-28 05:00:00 13.7 3 Norte 25 Noroeste 0 -- -- 55
2020-10-28 04:00:00 14.2 7 Norte 24 Norte 0 -- -- 54
2020-10-28 03:00:00 13.7 21 Noroeste 27 Noroeste 0 -- -- 55
2020-10-28 02:00:00 14.3 17 Noroeste 22 Norte 0 -- -- 53
2020-10-28 01:00:00 14.6 14 Noroeste 22 Norte 0 -- -- 52
2020-10-28 00:00:00 14 11 Noroeste 24 Noroeste 0 -- -- 52